sensor_id;sensor_type;location;lat;lon;timestamp;P1;durP1;ratioP1;P2;durP2;ratioP2
25687;SDS011;17407;51.120;3.702;2023-04-30T00:00:49;25.08;;;15.15;;
25687;SDS011;17407;51.120;3.702;2023-04-30T00:03:14;23.45;;;15.52;;
25687;SDS011;17407;51.120;3.702;2023-04-30T00:05:40;22.67;;;15.48;;
25687;SDS011;17407;51.120;3.702;2023-04-30T00:08:05;21.33;;;14.68;;
25687;SDS011;17407;51.120;3.702;2023-04-30T00:10:31;30.25;;;16.42;;
25687;SDS011;17407;51.120;3.702;2023-04-30T00:12:57;23.08;;;15.23;;
25687;SDS011;17407;51.120;3.702;2023-04-30T00:15:22;21.52;;;13.65;;
25687;SDS011;17407;51.120;3.702;2023-04-30T00:17:48;21.48;;;14.20;;
25687;SDS011;17407;51.120;3.702;2023-04-30T00:20:14;28.40;;;14.60;;
25687;SDS011;17407;51.120;3.702;2023-04-30T00:22:39;18.50;;;13.50;;
25687;SDS011;17407;51.120;3.702;2023-04-30T00:25:05;23.70;;;14.10;;
25687;SDS011;17407;51.120;3.702;2023-04-30T00:27:31;20.33;;;13.82;;
25687;SDS011;17407;51.120;3.702;2023-04-30T00:29:57;24.77;;;14.48;;
25687;SDS011;17407;51.120;3.702;2023-04-30T00:32:22;23.83;;;15.27;;
25687;SDS011;17407;51.120;3.702;2023-04-30T00:34:48;19.58;;;15.15;;
25687;SDS011;17407;51.120;3.702;2023-04-30T00:37:14;25.95;;;16.33;;
25687;SDS011;17407;51.120;3.702;2023-04-30T00:39:40;24.48;;;16.10;;
25687;SDS011;17407;51.120;3.702;2023-04-30T00:42:05;21.90;;;15.10;;
25687;SDS011;17407;51.120;3.702;2023-04-30T00:44:32;22.38;;;16.17;;
25687;SDS011;17407;51.120;3.702;2023-04-30T00:46:57;24.05;;;17.23;;
25687;SDS011;17407;51.120;3.702;2023-04-30T00:49:23;28.40;;;15.95;;
25687;SDS011;17407;51.120;3.702;2023-04-30T00:51:49;29.52;;;17.58;;
25687;SDS011;17407;51.120;3.702;2023-04-30T00:54:16;27.33;;;17.67;;
25687;SDS011;17407;51.120;3.702;2023-04-30T00:56:44;32.20;;;18.95;;
25687;SDS011;17407;51.120;3.702;2023-04-30T00:59:11;31.80;;;19.05;;
25687;SDS011;17407;51.120;3.702;2023-04-30T01:01:37;30.48;;;18.48;;
25687;SDS011;17407;51.120;3.702;2023-04-30T01:04:03;28.20;;;18.95;;
25687;SDS011;17407;51.120;3.702;2023-04-30T01:06:29;28.92;;;17.55;;
25687;SDS011;17407;51.120;3.702;2023-04-30T01:08:55;28.00;;;17.85;;
25687;SDS011;17407;51.120;3.702;2023-04-30T01:14:16;28.60;;;16.63;;
25687;SDS011;17407;51.120;3.702;2023-04-30T01:16:48;22.70;;;14.95;;
25687;SDS011;17407;51.120;3.702;2023-04-30T01:19:29;19.52;;;12.88;;
25687;SDS011;17407;51.120;3.702;2023-04-30T01:22:08;17.95;;;12.73;;
25687;SDS011;17407;51.120;3.702;2023-04-30T01:25:06;22.67;;;13.90;;
25687;SDS011;17407;51.120;3.702;2023-04-30T01:30:25;19.02;;;13.27;;
25687;SDS011;17407;51.120;3.702;2023-04-30T01:32:52;19.83;;;13.65;;
25687;SDS011;17407;51.120;3.702;2023-04-30T01:35:18;20.83;;;14.25;;
25687;SDS011;17407;51.120;3.702;2023-04-30T01:38:06;20.42;;;14.05;;
25687;SDS011;17407;51.120;3.702;2023-04-30T01:40:57;19.52;;;12.57;;
25687;SDS011;17407;51.120;3.702;2023-04-30T01:43:57;21.48;;;13.90;;
25687;SDS011;17407;51.120;3.702;2023-04-30T01:46:28;20.25;;;13.93;;
25687;SDS011;17407;51.120;3.702;2023-04-30T01:51:56;21.63;;;13.13;;
25687;SDS011;17407;51.120;3.702;2023-04-30T01:54:44;24.08;;;12.75;;
25687;SDS011;17407;51.120;3.702;2023-04-30T01:57:17;23.33;;;14.05;;
25687;SDS011;17407;51.120;3.702;2023-04-30T01:59:56;19.90;;;12.38;;
25687;SDS011;17407;51.120;3.702;2023-04-30T02:02:22;20.70;;;13.20;;
25687;SDS011;17407;51.120;3.702;2023-04-30T02:04:48;24.80;;;13.90;;
25687;SDS011;17407;51.120;3.702;2023-04-30T02:07:26;22.60;;;13.70;;
25687;SDS011;17407;51.120;3.702;2023-04-30T02:10:02;25.88;;;14.70;;
25687;SDS011;17407;51.120;3.702;2023-04-30T02:12:28;20.00;;;13.55;;
25687;SDS011;17407;51.120;3.702;2023-04-30T02:14:54;24.40;;;13.85;;
25687;SDS011;17407;51.120;3.702;2023-04-30T02:17:20;23.90;;;14.20;;
25687;SDS011;17407;51.120;3.702;2023-04-30T02:19:45;24.60;;;14.57;;
25687;SDS011;17407;51.120;3.702;2023-04-30T02:22:11;20.95;;;13.65;;
25687;SDS011;17407;51.120;3.702;2023-04-30T02:24:37;23.73;;;13.52;;
25687;SDS011;17407;51.120;3.702;2023-04-30T02:27:02;25.00;;;13.35;;
25687;SDS011;17407;51.120;3.702;2023-04-30T02:29:28;23.17;;;14.23;;
25687;SDS011;17407;51.120;3.702;2023-04-30T02:31:56;23.38;;;13.90;;
25687;SDS011;17407;51.120;3.702;2023-04-30T02:34:23;22.10;;;13.95;;
25687;SDS011;17407;51.120;3.702;2023-04-30T02:36:48;25.15;;;14.43;;
25687;SDS011;17407;51.120;3.702;2023-04-30T02:39:14;27.02;;;14.77;;
25687;SDS011;17407;51.120;3.702;2023-04-30T02:41:40;29.58;;;17.58;;
25687;SDS011;17407;51.120;3.702;2023-04-30T02:44:05;27.13;;;15.40;;
25687;SDS011;17407;51.120;3.702;2023-04-30T02:46:31;30.48;;;15.73;;
25687;SDS011;17407;51.120;3.702;2023-04-30T02:48:57;27.88;;;15.40;;
25687;SDS011;17407;51.120;3.702;2023-04-30T02:51:22;24.38;;;15.70;;
25687;SDS011;17407;51.120;3.702;2023-04-30T02:53:48;26.13;;;15.85;;
25687;SDS011;17407;51.120;3.702;2023-04-30T02:56:14;27.45;;;15.95;;
25687;SDS011;17407;51.120;3.702;2023-04-30T02:58:39;28.75;;;15.73;;
25687;SDS011;17407;51.120;3.702;2023-04-30T03:01:05;22.50;;;14.27;;
25687;SDS011;17407;51.120;3.702;2023-04-30T03:03:31;28.35;;;14.60;;
25687;SDS011;17407;51.120;3.702;2023-04-30T03:05:57;23.00;;;14.35;;
25687;SDS011;17407;51.120;3.702;2023-04-30T03:08:23;24.95;;;15.20;;
25687;SDS011;17407;51.120;3.702;2023-04-30T03:10:50;25.08;;;15.82;;
25687;SDS011;17407;51.120;3.702;2023-04-30T03:13:16;22.88;;;15.13;;
25687;SDS011;17407;51.120;3.702;2023-04-30T03:15:42;20.10;;;14.13;;
25687;SDS011;17407;51.120;3.702;2023-04-30T03:18:08;21.92;;;14.75;;
25687;SDS011;17407;51.120;3.702;2023-04-30T03:20:34;19.55;;;13.27;;
25687;SDS011;17407;51.120;3.702;2023-04-30T03:23:00;19.08;;;12.65;;
25687;SDS011;17407;51.120;3.702;2023-04-30T03:25:26;21.80;;;13.63;;
25687;SDS011;17407;51.120;3.702;2023-04-30T03:27:51;26.15;;;15.60;;
25687;SDS011;17407;51.120;3.702;2023-04-30T03:30:17;23.08;;;14.73;;
25687;SDS011;17407;51.120;3.702;2023-04-30T03:32:43;25.15;;;15.25;;
25687;SDS011;17407;51.120;3.702;2023-04-30T03:35:08;22.63;;;15.32;;
25687;SDS011;17407;51.120;3.702;2023-04-30T03:37:34;25.05;;;15.13;;
25687;SDS011;17407;51.120;3.702;2023-04-30T03:40:00;25.05;;;15.10;;
25687;SDS011;17407;51.120;3.702;2023-04-30T03:42:26;27.92;;;15.80;;
25687;SDS011;17407;51.120;3.702;2023-04-30T03:44:51;23.48;;;15.73;;
25687;SDS011;17407;51.120;3.702;2023-04-30T03:47:17;26.55;;;15.35;;
25687;SDS011;17407;51.120;3.702;2023-04-30T03:49:42;31.08;;;16.30;;
25687;SDS011;17407;51.120;3.702;2023-04-30T03:52:08;22.90;;;15.32;;
25687;SDS011;17407;51.120;3.702;2023-04-30T03:54:35;22.58;;;15.38;;
25687;SDS011;17407;51.120;3.702;2023-04-30T03:57:00;22.85;;;14.95;;
25687;SDS011;17407;51.120;3.702;2023-04-30T03:59:29;22.27;;;14.80;;
25687;SDS011;17407;51.120;3.702;2023-04-30T04:01:55;22.60;;;14.88;;
25687;SDS011;17407;51.120;3.702;2023-04-30T04:04:21;21.25;;;14.23;;
25687;SDS011;17407;51.120;3.702;2023-04-30T04:06:47;21.83;;;13.70;;
25687;SDS011;17407;51.120;3.702;2023-04-30T04:09:12;21.20;;;14.25;;
25687;SDS011;17407;51.120;3.702;2023-04-30T04:11:38;28.58;;;15.15;;
25687;SDS011;17407;51.120;3.702;2023-04-30T04:14:04;21.50;;;14.68;;
25687;SDS011;17407;51.120;3.702;2023-04-30T04:16:29;24.98;;;15.07;;
25687;SDS011;17407;51.120;3.702;2023-04-30T04:18:55;27.15;;;16.05;;
25687;SDS011;17407;51.120;3.702;2023-04-30T04:21:21;24.75;;;16.45;;
25687;SDS011;17407;51.120;3.702;2023-04-30T04:23:46;21.88;;;15.40;;
25687;SDS011;17407;51.120;3.702;2023-04-30T04:26:12;23.50;;;14.75;;
25687;SDS011;17407;51.120;3.702;2023-04-30T04:28:38;22.95;;;15.55;;
25687;SDS011;17407;51.120;3.702;2023-04-30T04:31:05;25.40;;;15.88;;
25687;SDS011;17407;51.120;3.702;2023-04-30T04:33:31;26.48;;;16.67;;
25687;SDS011;17407;51.120;3.702;2023-04-30T04:35:57;24.38;;;15.43;;
25687;SDS011;17407;51.120;3.702;2023-04-30T04:38:24;27.70;;;16.63;;
25687;SDS011;17407;51.120;3.702;2023-04-30T04:40:53;29.40;;;16.10;;
25687;SDS011;17407;51.120;3.702;2023-04-30T04:43:19;26.27;;;16.05;;
25687;SDS011;17407;51.120;3.702;2023-04-30T04:45:45;25.23;;;16.25;;
25687;SDS011;17407;51.120;3.702;2023-04-30T04:48:14;27.13;;;16.15;;
25687;SDS011;17407;51.120;3.702;2023-04-30T04:50:40;23.77;;;14.50;;
25687;SDS011;17407;51.120;3.702;2023-04-30T04:53:06;26.48;;;15.98;;
25687;SDS011;17407;51.120;3.702;2023-04-30T04:55:31;26.30;;;15.43;;
25687;SDS011;17407;51.120;3.702;2023-04-30T04:57:57;23.23;;;16.40;;
25687;SDS011;17407;51.120;3.702;2023-04-30T05:00:22;26.27;;;16.13;;
25687;SDS011;17407;51.120;3.702;2023-04-30T05:02:49;24.70;;;16.30;;
25687;SDS011;17407;51.120;3.702;2023-04-30T05:05:15;24.20;;;15.00;;
25687;SDS011;17407;51.120;3.702;2023-04-30T05:07:41;25.85;;;16.15;;
25687;SDS011;17407;51.120;3.702;2023-04-30T05:10:07;31.13;;;17.50;;
25687;SDS011;17407;51.120;3.702;2023-04-30T05:12:33;30.90;;;18.38;;
25687;SDS011;17407;51.120;3.702;2023-04-30T05:14:58;25.15;;;17.25;;
25687;SDS011;17407;51.120;3.702;2023-04-30T05:17:24;26.73;;;17.25;;
25687;SDS011;17407;51.120;3.702;2023-04-30T05:19:50;26.75;;;18.17;;
25687;SDS011;17407;51.120;3.702;2023-04-30T05:22:16;26.90;;;17.90;;
25687;SDS011;17407;51.120;3.702;2023-04-30T05:24:42;28.42;;;17.65;;
25687;SDS011;17407;51.120;3.702;2023-04-30T05:27:08;25.77;;;17.50;;
25687;SDS011;17407;51.120;3.702;2023-04-30T05:29:34;29.30;;;17.75;;
25687;SDS011;17407;51.120;3.702;2023-04-30T05:32:00;31.10;;;18.17;;
25687;SDS011;17407;51.120;3.702;2023-04-30T05:34:26;29.50;;;18.38;;
25687;SDS011;17407;51.120;3.702;2023-04-30T05:36:51;30.40;;;19.02;;
25687;SDS011;17407;51.120;3.702;2023-04-30T05:39:17;34.47;;;20.63;;
25687;SDS011;17407;51.120;3.702;2023-04-30T05:41:43;33.55;;;20.83;;
25687;SDS011;17407;51.120;3.702;2023-04-30T05:44:08;43.55;;;23.30;;
25687;SDS011;17407;51.120;3.702;2023-04-30T05:46:34;35.80;;;22.42;;
25687;SDS011;17407;51.120;3.702;2023-04-30T05:49:00;33.55;;;23.33;;
25687;SDS011;17407;51.120;3.702;2023-04-30T05:51:26;35.03;;;22.13;;
25687;SDS011;17407;51.120;3.702;2023-04-30T05:53:52;30.10;;;18.77;;
25687;SDS011;17407;51.120;3.702;2023-04-30T05:56:18;37.55;;;20.25;;
25687;SDS011;17407;51.120;3.702;2023-04-30T05:58:45;35.25;;;20.42;;
25687;SDS011;17407;51.120;3.702;2023-04-30T06:01:11;29.63;;;18.90;;
25687;SDS011;17407;51.120;3.702;2023-04-30T06:03:36;28.50;;;17.90;;
25687;SDS011;17407;51.120;3.702;2023-04-30T06:06:02;36.53;;;20.20;;
25687;SDS011;17407;51.120;3.702;2023-04-30T06:08:28;30.15;;;19.20;;
25687;SDS011;17407;51.120;3.702;2023-04-30T06:10:54;32.05;;;18.80;;
25687;SDS011;17407;51.120;3.702;2023-04-30T06:13:20;29.25;;;19.52;;
25687;SDS011;17407;51.120;3.702;2023-04-30T06:15:47;24.80;;;17.20;;
25687;SDS011;17407;51.120;3.702;2023-04-30T06:18:15;30.08;;;18.10;;
25687;SDS011;17407;51.120;3.702;2023-04-30T06:20:41;27.95;;;18.27;;
25687;SDS011;17407;51.120;3.702;2023-04-30T06:23:07;28.52;;;19.42;;
25687;SDS011;17407;51.120;3.702;2023-04-30T06:25:33;33.60;;;19.85;;
25687;SDS011;17407;51.120;3.702;2023-04-30T06:28:00;27.52;;;19.45;;
25687;SDS011;17407;51.120;3.702;2023-04-30T06:30:28;27.27;;;18.85;;
25687;SDS011;17407;51.120;3.702;2023-04-30T06:32:55;28.20;;;19.08;;
25687;SDS011;17407;51.120;3.702;2023-04-30T06:35:21;33.80;;;19.67;;
25687;SDS011;17407;51.120;3.702;2023-04-30T06:37:47;30.65;;;19.88;;
25687;SDS011;17407;51.120;3.702;2023-04-30T06:40:15;31.80;;;19.52;;
25687;SDS011;17407;51.120;3.702;2023-04-30T06:42:41;29.13;;;18.30;;
25687;SDS011;17407;51.120;3.702;2023-04-30T06:45:07;31.35;;;19.55;;
25687;SDS011;17407;51.120;3.702;2023-04-30T06:47:33;27.52;;;19.65;;
25687;SDS011;17407;51.120;3.702;2023-04-30T06:50:02;29.30;;;21.02;;
25687;SDS011;17407;51.120;3.702;2023-04-30T06:52:28;30.92;;;19.98;;
25687;SDS011;17407;51.120;3.702;2023-04-30T06:54:55;31.27;;;20.10;;
25687;SDS011;17407;51.120;3.702;2023-04-30T06:57:20;29.45;;;20.33;;
25687;SDS011;17407;51.120;3.702;2023-04-30T06:59:46;32.83;;;19.63;;
25687;SDS011;17407;51.120;3.702;2023-04-30T07:02:12;29.88;;;20.50;;
25687;SDS011;17407;51.120;3.702;2023-04-30T07:04:37;29.50;;;19.52;;
25687;SDS011;17407;51.120;3.702;2023-04-30T07:07:03;31.27;;;20.17;;
25687;SDS011;17407;51.120;3.702;2023-04-30T07:09:29;31.10;;;20.25;;
25687;SDS011;17407;51.120;3.702;2023-04-30T07:11:56;30.42;;;20.75;;
25687;SDS011;17407;51.120;3.702;2023-04-30T07:14:22;28.95;;;19.95;;
25687;SDS011;17407;51.120;3.702;2023-04-30T07:16:51;28.83;;;19.60;;
25687;SDS011;17407;51.120;3.702;2023-04-30T07:19:17;25.67;;;18.95;;
25687;SDS011;17407;51.120;3.702;2023-04-30T07:21:43;30.83;;;19.73;;
25687;SDS011;17407;51.120;3.702;2023-04-30T07:24:09;28.05;;;19.52;;
25687;SDS011;17407;51.120;3.702;2023-04-30T07:26:35;31.17;;;20.23;;
25687;SDS011;17407;51.120;3.702;2023-04-30T07:29:01;27.35;;;19.83;;
25687;SDS011;17407;51.120;3.702;2023-04-30T07:31:27;28.67;;;18.73;;
25687;SDS011;17407;51.120;3.702;2023-04-30T07:33:53;37.90;;;19.80;;
25687;SDS011;17407;51.120;3.702;2023-04-30T07:36:20;30.42;;;20.40;;
25687;SDS011;17407;51.120;3.702;2023-04-30T07:38:46;30.30;;;18.98;;
25687;SDS011;17407;51.120;3.702;2023-04-30T07:41:12;28.80;;;20.10;;
25687;SDS011;17407;51.120;3.702;2023-04-30T07:43:38;28.90;;;19.80;;
25687;SDS011;17407;51.120;3.702;2023-04-30T07:46:03;28.58;;;19.00;;
25687;SDS011;17407;51.120;3.702;2023-04-30T07:48:29;33.17;;;20.45;;
25687;SDS011;17407;51.120;3.702;2023-04-30T07:50:55;26.90;;;19.95;;
25687;SDS011;17407;51.120;3.702;2023-04-30T07:53:24;26.70;;;19.35;;
25687;SDS011;17407;51.120;3.702;2023-04-30T07:55:50;31.10;;;21.15;;
25687;SDS011;17407;51.120;3.702;2023-04-30T07:58:16;31.13;;;21.45;;
25687;SDS011;17407;51.120;3.702;2023-04-30T08:00:41;31.10;;;20.50;;
25687;SDS011;17407;51.120;3.702;2023-04-30T08:03:07;27.27;;;19.27;;
25687;SDS011;17407;51.120;3.702;2023-04-30T08:05:33;29.50;;;20.40;;
25687;SDS011;17407;51.120;3.702;2023-04-30T08:07:58;33.90;;;21.88;;
25687;SDS011;17407;51.120;3.702;2023-04-30T08:10:24;30.42;;;22.55;;
25687;SDS011;17407;51.120;3.702;2023-04-30T08:12:51;27.38;;;20.77;;
25687;SDS011;17407;51.120;3.702;2023-04-30T08:15:17;29.58;;;22.58;;
25687;SDS011;17407;51.120;3.702;2023-04-30T08:17:45;29.60;;;22.35;;
25687;SDS011;17407;51.120;3.702;2023-04-30T08:20:15;31.30;;;21.92;;
25687;SDS011;17407;51.120;3.702;2023-04-30T08:22:41;29.95;;;21.27;;
25687;SDS011;17407;51.120;3.702;2023-04-30T08:25:09;32.92;;;20.63;;
25687;SDS011;17407;51.120;3.702;2023-04-30T08:27:36;26.15;;;20.50;;
25687;SDS011;17407;51.120;3.702;2023-04-30T08:30:02;25.30;;;19.23;;
25687;SDS011;17407;51.120;3.702;2023-04-30T08:32:28;23.65;;;19.08;;
25687;SDS011;17407;51.120;3.702;2023-04-30T08:34:54;28.52;;;20.52;;
25687;SDS011;17407;51.120;3.702;2023-04-30T08:37:20;28.63;;;20.73;;
25687;SDS011;17407;51.120;3.702;2023-04-30T08:39:46;28.50;;;20.15;;
25687;SDS011;17407;51.120;3.702;2023-04-30T08:42:12;28.10;;;20.50;;
25687;SDS011;17407;51.120;3.702;2023-04-30T08:44:38;28.27;;;19.98;;
25687;SDS011;17407;51.120;3.702;2023-04-30T08:47:07;26.42;;;19.63;;
25687;SDS011;17407;51.120;3.702;2023-04-30T08:49:37;27.25;;;19.60;;
25687;SDS011;17407;51.120;3.702;2023-04-30T08:52:03;28.75;;;19.45;;
25687;SDS011;17407;51.120;3.702;2023-04-30T08:54:32;25.17;;;17.95;;
25687;SDS011;17407;51.120;3.702;2023-04-30T08:56:59;26.20;;;18.65;;
25687;SDS011;17407;51.120;3.702;2023-04-30T08:59:25;29.70;;;18.98;;
25687;SDS011;17407;51.120;3.702;2023-04-30T09:01:51;29.33;;;19.55;;
25687;SDS011;17407;51.120;3.702;2023-04-30T09:04:17;26.83;;;19.23;;
25687;SDS011;17407;51.120;3.702;2023-04-30T09:06:43;25.15;;;19.00;;
25687;SDS011;17407;51.120;3.702;2023-04-30T09:09:10;25.20;;;18.80;;
25687;SDS011;17407;51.120;3.702;2023-04-30T09:11:37;25.27;;;19.33;;
25687;SDS011;17407;51.120;3.702;2023-04-30T09:14:02;24.25;;;18.48;;
25687;SDS011;17407;51.120;3.702;2023-04-30T09:16:29;26.77;;;19.50;;
25687;SDS011;17407;51.120;3.702;2023-04-30T09:19:09;24.95;;;19.65;;
25687;SDS011;17407;51.120;3.702;2023-04-30T09:21:46;22.88;;;19.02;;
25687;SDS011;17407;51.120;3.702;2023-04-30T09:24:12;25.98;;;19.92;;
25687;SDS011;17407;51.120;3.702;2023-04-30T09:26:38;26.70;;;19.08;;
25687;SDS011;17407;51.120;3.702;2023-04-30T09:29:04;23.02;;;18.15;;
25687;SDS011;17407;51.120;3.702;2023-04-30T09:31:34;23.55;;;18.80;;
25687;SDS011;17407;51.120;3.702;2023-04-30T09:34:01;21.90;;;18.23;;
25687;SDS011;17407;51.120;3.702;2023-04-30T09:36:26;20.13;;;16.33;;
25687;SDS011;17407;51.120;3.702;2023-04-30T09:38:52;22.23;;;18.05;;
25687;SDS011;17407;51.120;3.702;2023-04-30T09:43:51;22.75;;;16.95;;
25687;SDS011;17407;51.120;3.702;2023-04-30T09:46:18;20.10;;;16.27;;
25687;SDS011;17407;51.120;3.702;2023-04-30T09:48:44;19.23;;;16.70;;
25687;SDS011;17407;51.120;3.702;2023-04-30T09:51:10;21.27;;;17.13;;
25687;SDS011;17407;51.120;3.702;2023-04-30T09:53:39;18.30;;;13.50;;
25687;SDS011;17407;51.120;3.702;2023-04-30T09:56:06;20.42;;;15.30;;
25687;SDS011;17407;51.120;3.702;2023-04-30T09:58:35;21.45;;;15.68;;
25687;SDS011;17407;51.120;3.702;2023-04-30T10:01:05;14.88;;;10.30;;
25687;SDS011;17407;51.120;3.702;2023-04-30T10:03:35;17.83;;;11.90;;
25687;SDS011;17407;51.120;3.702;2023-04-30T10:06:04;14.25;;;11.77;;
25687;SDS011;17407;51.120;3.702;2023-04-30T10:08:41;15.85;;;11.95;;
25687;SDS011;17407;51.120;3.702;2023-04-30T10:11:09;15.65;;;10.90;;
25687;SDS011;17407;51.120;3.702;2023-04-30T10:13:59;9.80;;;8.52;;
25687;SDS011;17407;51.120;3.702;2023-04-30T10:19:23;12.90;;;9.40;;
25687;SDS011;17407;51.120;3.702;2023-04-30T10:21:50;14.90;;;10.68;;
25687;SDS011;17407;51.120;3.702;2023-04-30T10:24:18;12.98;;;10.65;;
25687;SDS011;17407;51.120;3.702;2023-04-30T10:26:45;12.70;;;9.43;;
25687;SDS011;17407;51.120;3.702;2023-04-30T10:29:12;11.65;;;8.90;;
25687;SDS011;17407;51.120;3.702;2023-04-30T10:31:39;11.85;;;9.25;;
25687;SDS011;17407;51.120;3.702;2023-04-30T10:39:21;13.82;;;9.27;;
25687;SDS011;17407;51.120;3.702;2023-04-30T10:41:48;11.43;;;9.40;;
25687;SDS011;17407;51.120;3.702;2023-04-30T10:44:20;10.73;;;8.32;;
25687;SDS011;17407;51.120;3.702;2023-04-30T10:46:46;9.43;;;8.48;;
25687;SDS011;17407;51.120;3.702;2023-04-30T10:49:12;12.65;;;10.25;;
25687;SDS011;17407;51.120;3.702;2023-04-30T10:51:50;12.75;;;10.02;;
25687;SDS011;17407;51.120;3.702;2023-04-30T10:54:26;10.23;;;8.90;;
25687;SDS011;17407;51.120;3.702;2023-04-30T10:56:53;12.38;;;9.07;;
25687;SDS011;17407;51.120;3.702;2023-04-30T10:59:34;12.20;;;7.63;;
25687;SDS011;17407;51.120;3.702;2023-04-30T11:02:01;10.77;;;7.28;;
25687;SDS011;17407;51.120;3.702;2023-04-30T11:04:27;8.90;;;7.50;;
25687;SDS011;17407;51.120;3.702;2023-04-30T11:07:08;8.13;;;7.32;;
25687;SDS011;17407;51.120;3.702;2023-04-30T11:12:10;9.00;;;8.05;;
25687;SDS011;17407;51.120;3.702;2023-04-30T11:14:42;9.80;;;7.93;;
25687;SDS011;17407;51.120;3.702;2023-04-30T11:17:13;10.75;;;8.63;;
25687;SDS011;17407;51.120;3.702;2023-04-30T11:19:50;12.35;;;8.00;;
25687;SDS011;17407;51.120;3.702;2023-04-30T11:22:18;10.00;;;7.53;;
25687;SDS011;17407;51.120;3.702;2023-04-30T11:27:34;9.77;;;7.80;;
25687;SDS011;17407;51.120;3.702;2023-04-30T11:30:01;10.90;;;7.93;;
25687;SDS011;17407;51.120;3.702;2023-04-30T11:32:33;9.13;;;7.65;;
25687;SDS011;17407;51.120;3.702;2023-04-30T11:35:03;9.68;;;8.02;;
25687;SDS011;17407;51.120;3.702;2023-04-30T11:37:31;7.95;;;6.40;;
25687;SDS011;17407;51.120;3.702;2023-04-30T11:39:59;8.27;;;5.63;;
25687;SDS011;17407;51.120;3.702;2023-04-30T11:42:39;5.88;;;4.65;;
25687;SDS011;17407;51.120;3.702;2023-04-30T11:45:11;6.80;;;5.78;;
25687;SDS011;17407;51.120;3.702;2023-04-30T11:47:42;7.05;;;5.68;;
25687;SDS011;17407;51.120;3.702;2023-04-30T11:50:10;11.77;;;7.38;;
25687;SDS011;17407;51.120;3.702;2023-04-30T11:52:37;9.40;;;7.63;;
25687;SDS011;17407;51.120;3.702;2023-04-30T11:55:05;10.00;;;7.97;;
25687;SDS011;17407;51.120;3.702;2023-04-30T11:57:38;9.50;;;8.43;;
25687;SDS011;17407;51.120;3.702;2023-04-30T12:00:14;8.45;;;7.18;;
25687;SDS011;17407;51.120;3.702;2023-04-30T12:02:45;9.30;;;6.90;;
25687;SDS011;17407;51.120;3.702;2023-04-30T12:05:15;8.25;;;6.53;;
25687;SDS011;17407;51.120;3.702;2023-04-30T12:10:19;6.68;;;5.47;;
25687;SDS011;17407;51.120;3.702;2023-04-30T12:12:45;9.80;;;6.10;;
25687;SDS011;17407;51.120;3.702;2023-04-30T12:15:19;11.10;;;6.63;;
25687;SDS011;17407;51.120;3.702;2023-04-30T12:17:50;9.60;;;7.28;;
25687;SDS011;17407;51.120;3.702;2023-04-30T12:20:16;7.70;;;6.53;;
25687;SDS011;17407;51.120;3.702;2023-04-30T12:22:42;9.55;;;6.72;;
25687;SDS011;17407;51.120;3.702;2023-04-30T12:25:16;7.22;;;5.90;;
25687;SDS011;17407;51.120;3.702;2023-04-30T12:27:45;7.88;;;6.47;;
25687;SDS011;17407;51.120;3.702;2023-04-30T12:30:13;6.25;;;5.70;;
25687;SDS011;17407;51.120;3.702;2023-04-30T12:32:43;8.18;;;5.88;;
25687;SDS011;17407;51.120;3.702;2023-04-30T12:35:13;9.70;;;5.57;;
25687;SDS011;17407;51.120;3.702;2023-04-30T12:37:41;8.13;;;5.05;;
25687;SDS011;17407;51.120;3.702;2023-04-30T12:40:12;7.85;;;5.50;;
25687;SDS011;17407;51.120;3.702;2023-04-30T12:42:38;6.50;;;5.43;;
25687;SDS011;17407;51.120;3.702;2023-04-30T12:45:08;7.95;;;5.63;;
25687;SDS011;17407;51.120;3.702;2023-04-30T12:47:40;6.85;;;4.65;;
25687;SDS011;17407;51.120;3.702;2023-04-30T12:52:36;5.50;;;4.88;;
25687;SDS011;17407;51.120;3.702;2023-04-30T12:55:14;4.10;;;3.70;;
25687;SDS011;17407;51.120;3.702;2023-04-30T12:58:01;4.93;;;3.55;;
25687;SDS011;17407;51.120;3.702;2023-04-30T13:03:10;5.72;;;4.53;;
25687;SDS011;17407;51.120;3.702;2023-04-30T13:05:37;6.35;;;4.20;;
25687;SDS011;17407;51.120;3.702;2023-04-30T13:08:03;5.80;;;4.88;;
25687;SDS011;17407;51.120;3.702;2023-04-30T13:10:30;6.13;;;4.63;;
25687;SDS011;17407;51.120;3.702;2023-04-30T13:12:56;4.97;;;4.57;;
25687;SDS011;17407;51.120;3.702;2023-04-30T13:15:22;7.60;;;4.28;;
25687;SDS011;17407;51.120;3.702;2023-04-30T13:17:48;5.32;;;3.90;;
25687;SDS011;17407;51.120;3.702;2023-04-30T13:20:17;4.40;;;4.00;;
25687;SDS011;17407;51.120;3.702;2023-04-30T13:22:42;4.60;;;3.63;;
25687;SDS011;17407;51.120;3.702;2023-04-30T13:25:08;4.38;;;3.80;;
25687;SDS011;17407;51.120;3.702;2023-04-30T13:27:34;4.72;;;4.05;;
25687;SDS011;17407;51.120;3.702;2023-04-30T13:30:01;8.45;;;4.03;;
25687;SDS011;17407;51.120;3.702;2023-04-30T13:32:27;9.48;;;6.30;;
25687;SDS011;17407;51.120;3.702;2023-04-30T13:34:53;8.00;;;7.20;;
25687;SDS011;17407;51.120;3.702;2023-04-30T13:37:20;9.25;;;4.97;;
25687;SDS011;17407;51.120;3.702;2023-04-30T13:39:46;7.22;;;4.15;;
25687;SDS011;17407;51.120;3.702;2023-04-30T13:42:15;6.88;;;3.58;;
25687;SDS011;17407;51.120;3.702;2023-04-30T13:44:43;4.25;;;3.53;;
25687;SDS011;17407;51.120;3.702;2023-04-30T13:47:11;8.73;;;6.05;;
25687;SDS011;17407;51.120;3.702;2023-04-30T13:49:40;6.97;;;5.05;;
25687;SDS011;17407;51.120;3.702;2023-04-30T13:52:06;4.15;;;3.60;;
25687;SDS011;17407;51.120;3.702;2023-04-30T13:54:32;3.78;;;3.35;;
25687;SDS011;17407;51.120;3.702;2023-04-30T13:56:57;8.77;;;4.03;;
25687;SDS011;17407;51.120;3.702;2023-04-30T13:59:27;11.75;;;6.35;;
25687;SDS011;17407;51.120;3.702;2023-04-30T14:01:53;8.60;;;6.38;;
25687;SDS011;17407;51.120;3.702;2023-04-30T14:04:19;6.75;;;6.05;;
25687;SDS011;17407;51.120;3.702;2023-04-30T14:06:45;16.02;;;6.65;;
25687;SDS011;17407;51.120;3.702;2023-04-30T14:09:12;10.35;;;7.43;;
25687;SDS011;17407;51.120;3.702;2023-04-30T14:11:38;9.73;;;7.25;;
25687;SDS011;17407;51.120;3.702;2023-04-30T14:14:04;4.40;;;4.00;;
25687;SDS011;17407;51.120;3.702;2023-04-30T14:16:30;4.40;;;4.00;;
25687;SDS011;17407;51.120;3.702;2023-04-30T14:18:56;7.25;;;5.03;;
25687;SDS011;17407;51.120;3.702;2023-04-30T14:21:22;13.25;;;7.50;;
25687;SDS011;17407;51.120;3.702;2023-04-30T14:23:47;20.30;;;9.65;;
25687;SDS011;17407;51.120;3.702;2023-04-30T14:26:13;10.30;;;8.18;;
25687;SDS011;17407;51.120;3.702;2023-04-30T14:28:38;12.80;;;8.13;;
25687;SDS011;17407;51.120;3.702;2023-04-30T14:31:04;12.52;;;8.85;;
25687;SDS011;17407;51.120;3.702;2023-04-30T14:33:30;11.75;;;8.40;;
25687;SDS011;17407;51.120;3.702;2023-04-30T14:35:57;8.07;;;5.80;;
25687;SDS011;17407;51.120;3.702;2023-04-30T14:38:26;7.05;;;6.30;;
25687;SDS011;17407;51.120;3.702;2023-04-30T14:40:52;7.18;;;6.47;;
25687;SDS011;17407;51.120;3.702;2023-04-30T14:43:18;11.02;;;8.13;;
25687;SDS011;17407;51.120;3.702;2023-04-30T14:45:44;8.48;;;7.30;;
25687;SDS011;17407;51.120;3.702;2023-04-30T14:48:10;6.53;;;5.40;;
25687;SDS011;17407;51.120;3.702;2023-04-30T14:50:36;5.50;;;4.15;;
25687;SDS011;17407;51.120;3.702;2023-04-30T14:53:05;4.85;;;3.90;;
25687;SDS011;17407;51.120;3.702;2023-04-30T14:55:31;7.50;;;5.60;;
25687;SDS011;17407;51.120;3.702;2023-04-30T14:57:57;7.88;;;6.05;;
25687;SDS011;17407;51.120;3.702;2023-04-30T15:00:23;7.32;;;5.85;;
25687;SDS011;17407;51.120;3.702;2023-04-30T15:02:49;6.57;;;5.85;;